Mineola, Missouri
Current Conditions -  °F | °C
As of 3:55 PM on Thursday 20 Nov 2014 (Local Time) from KFYG Reporting Station
Broken Clouds Broken Clouds  
Wind Chill:   Ceiling: 9000
Heat Index:   Visibility: 10mi
Dew Point: -7°   Wind: 7mph
Humidity: 45%   Direction: 290°WNW
Pressure: 30.21"   Gusts: NA
Location:  39.0022°N, 91.5066°W
Report Text: KFYG 202155Z AUTO 29006KT 10SM BKN090 04/M07 A3021 RMK AO2
Loading
Personal Weather Stations






























Interactive Weather Map New forecast layout! Learn more

10-Day Weather Forecast

Advertisements
Track Severe Weather on mobile